createdAt,value
2024-02-29T00:01:05.260Z,31.88
2024-02-29T00:03:31.952Z,28.58
2024-02-29T00:05:58.594Z,28.55
2024-02-29T00:08:25.155Z,29.08
2024-02-29T00:10:51.774Z,28.05
2024-02-29T00:13:18.476Z,29.15
2024-02-29T00:15:45.119Z,28.23
2024-02-29T00:18:11.781Z,27.42
2024-02-29T00:20:38.384Z,27.63
2024-02-29T00:23:05.141Z,30.38
2024-02-29T00:25:31.710Z,31.27
2024-02-29T00:27:58.355Z,28.83
2024-02-29T00:30:25.015Z,31.92
2024-02-29T00:32:53.259Z,32.22
2024-02-29T00:35:21.100Z,28.30
2024-02-29T00:37:47.652Z,28.15
2024-02-29T00:40:14.427Z,29.15
2024-02-29T00:42:41.020Z,27.17
2024-02-29T00:45:07.792Z,32.38
2024-02-29T00:47:34.444Z,31.30
2024-02-29T00:50:01.069Z,29.83
2024-02-29T00:52:27.671Z,27.23
2024-02-29T00:54:54.288Z,29.10
2024-02-29T00:57:20.912Z,24.80
2024-02-29T00:59:47.492Z,31.13
2024-02-29T01:02:14.127Z,27.67
2024-02-29T01:04:40.742Z,28.73
2024-02-29T01:07:07.427Z,29.02
2024-02-29T01:09:34.077Z,30.40
2024-02-29T01:12:00.803Z,26.75
2024-02-29T01:14:27.454Z,27.23
2024-02-29T01:16:54.144Z,30.02
2024-02-29T01:19:20.840Z,28.45
2024-02-29T01:21:47.534Z,27.42
2024-02-29T01:24:14.208Z,27.55
2024-02-29T01:26:40.826Z,24.88
2024-02-29T01:29:07.431Z,28.10
2024-02-29T01:31:34.013Z,27.35
2024-02-29T01:34:00.607Z,26.08
2024-02-29T01:36:27.210Z,22.65
2024-02-29T01:38:53.846Z,27.45
2024-02-29T01:41:20.468Z,24.20
2024-02-29T01:43:51.538Z,23.27
2024-02-29T01:46:18.148Z,23.00
2024-02-29T01:48:44.793Z,26.73
2024-02-29T01:51:11.371Z,26.65
2024-02-29T01:53:38.023Z,26.45
2024-02-29T01:56:04.948Z,23.02
2024-02-29T01:58:32.660Z,23.85
2024-02-29T02:00:59.292Z,25.67
2024-02-29T02:03:26.071Z,26.92
2024-02-29T02:05:52.618Z,28.98
2024-02-29T02:08:19.239Z,23.90
2024-02-29T02:10:45.850Z,22.27
2024-02-29T02:13:12.491Z,25.58
2024-02-29T02:15:39.103Z,23.70
2024-02-29T02:18:05.871Z,20.40
2024-02-29T02:20:32.489Z,23.55
2024-02-29T02:22:59.128Z,24.27
2024-02-29T02:25:25.712Z,21.85
2024-02-29T02:27:52.315Z,21.98
2024-02-29T02:30:18.959Z,22.73
2024-02-29T02:32:45.600Z,21.60
2024-02-29T02:35:12.199Z,21.77
2024-02-29T02:37:39.269Z,24.10
2024-02-29T02:40:06.860Z,23.25
2024-02-29T02:42:33.669Z,19.95
2024-02-29T02:45:00.428Z,26.73
2024-02-29T02:47:27.174Z,24.38
2024-02-29T02:49:53.811Z,22.67
2024-02-29T02:52:20.462Z,19.80
2024-02-29T02:54:47.113Z,20.50
2024-02-29T02:57:13.742Z,23.30
2024-02-29T02:59:40.389Z,24.15
2024-02-29T03:02:07.075Z,22.65
2024-02-29T03:04:33.803Z,19.80
2024-02-29T03:07:00.484Z,21.02
2024-02-29T03:09:27.102Z,22.00
2024-02-29T03:11:53.739Z,25.63
2024-02-29T03:14:20.324Z,24.73
2024-02-29T03:16:47.065Z,23.17
2024-02-29T03:19:13.768Z,22.88
2024-02-29T03:21:40.521Z,21.60
2024-02-29T03:24:07.269Z,24.13
2024-02-29T03:26:33.906Z,23.63
2024-02-29T03:29:00.534Z,22.00
2024-02-29T03:31:27.144Z,23.60
2024-02-29T03:33:53.768Z,23.42
2024-02-29T03:36:20.502Z,20.33
2024-02-29T03:38:47.081Z,23.30
2024-02-29T03:41:13.725Z,21.55
2024-02-29T03:43:40.309Z,22.60
2024-02-29T03:46:07.013Z,21.17
2024-02-29T03:48:33.766Z,18.48
2024-02-29T03:51:00.453Z,20.88
2024-02-29T03:53:27.066Z,20.90
2024-02-29T03:55:53.637Z,20.02
2024-02-29T03:58:20.254Z,20.10
2024-02-29T04:00:47.162Z,21.13
2024-02-29T04:03:13.878Z,20.23
2024-02-29T04:05:40.469Z,22.52
2024-02-29T04:08:07.715Z,20.45
2024-02-29T04:10:34.346Z,20.98
2024-02-29T04:13:00.991Z,20.38
2024-02-29T04:15:27.588Z,20.25
2024-02-29T04:17:54.202Z,16.88
2024-02-29T04:20:21.076Z,17.88
2024-02-29T04:22:47.745Z,19.90
2024-02-29T04:25:14.397Z,19.17
2024-02-29T04:27:41.034Z,19.73
2024-02-29T04:30:09.427Z,21.33
2024-02-29T04:32:37.709Z,20.77
2024-02-29T04:35:04.586Z,18.95
2024-02-29T04:37:31.172Z,16.55
2024-02-29T04:39:57.823Z,17.75
2024-02-29T04:42:24.440Z,20.13
2024-02-29T04:44:51.117Z,18.52
2024-02-29T04:47:17.655Z,18.55
2024-02-29T04:49:44.288Z,19.10
2024-02-29T04:52:10.905Z,17.27
2024-02-29T04:54:40.282Z,21.08
2024-02-29T04:57:07.125Z,17.33
2024-02-29T04:59:33.802Z,20.98
2024-02-29T05:02:02.372Z,21.80
2024-02-29T05:04:29.365Z,17.65
2024-02-29T05:06:55.998Z,19.08
2024-02-29T05:09:22.996Z,16.58
2024-02-29T05:11:49.593Z,19.98
2024-02-29T05:14:16.235Z,21.38
2024-02-29T05:16:42.780Z,18.90
2024-02-29T05:19:09.467Z,14.80
2024-02-29T05:21:36.058Z,18.83
2024-02-29T05:24:02.704Z,17.63
2024-02-29T05:26:29.285Z,18.60
2024-02-29T05:28:55.901Z,18.35
2024-02-29T05:31:22.468Z,17.40
2024-02-29T05:33:49.031Z,17.30
2024-02-29T05:36:15.816Z,24.77
2024-02-29T05:38:42.414Z,19.38
2024-02-29T05:41:09.070Z,22.73
2024-02-29T05:43:36.421Z,19.08
2024-02-29T05:46:03.314Z,20.13
2024-02-29T05:48:30.005Z,18.83
2024-02-29T05:50:56.601Z,20.38
2024-02-29T05:53:23.159Z,19.85
2024-02-29T05:55:49.685Z,20.05
2024-02-29T05:58:16.383Z,17.40
2024-02-29T06:00:43.143Z,20.90
2024-02-29T06:03:09.819Z,18.00
2024-02-29T06:05:36.399Z,18.75
2024-02-29T06:08:03.524Z,22.00
2024-02-29T06:10:30.116Z,20.90
2024-02-29T06:12:56.867Z,17.27
2024-02-29T06:15:23.479Z,18.60
2024-02-29T06:17:50.114Z,20.00
2024-02-29T06:20:16.828Z,17.33
2024-02-29T06:22:43.501Z,20.20
2024-02-29T06:25:10.948Z,19.63
2024-02-29T06:27:37.803Z,20.08
2024-02-29T06:30:06.727Z,18.88
2024-02-29T06:32:33.350Z,19.15
2024-02-29T06:34:59.925Z,17.35
2024-02-29T06:37:26.561Z,21.27
2024-02-29T06:39:56.020Z,17.67
2024-02-29T06:42:22.673Z,22.38
2024-02-29T06:44:49.270Z,21.95
2024-02-29T06:47:15.888Z,20.05
2024-02-29T06:49:42.501Z,18.33
2024-02-29T06:52:09.188Z,19.50
2024-02-29T06:54:35.866Z,16.88
2024-02-29T06:57:02.479Z,19.33
2024-02-29T06:59:29.112Z,17.60
2024-02-29T07:01:55.787Z,15.43
2024-02-29T07:04:22.432Z,17.13
2024-02-29T07:06:49.136Z,17.92
2024-02-29T07:09:15.726Z,20.42
2024-02-29T07:11:42.470Z,18.58
2024-02-29T07:14:09.135Z,16.05
2024-02-29T07:16:35.708Z,17.38
2024-02-29T07:19:02.329Z,16.90
2024-02-29T07:21:28.899Z,15.80
2024-02-29T07:23:55.496Z,17.55
2024-02-29T07:26:22.097Z,15.32
2024-02-29T07:28:48.697Z,15.18
2024-02-29T07:31:15.367Z,17.17
2024-02-29T07:33:42.121Z,17.65
2024-02-29T07:36:08.718Z,15.75
2024-02-29T07:38:35.414Z,16.25
2024-02-29T07:41:01.936Z,14.98
2024-02-29T07:43:28.550Z,15.73
2024-02-29T07:45:55.202Z,18.20
2024-02-29T07:48:21.931Z,17.60
2024-02-29T07:50:48.508Z,15.38
2024-02-29T07:53:15.143Z,14.43
2024-02-29T07:55:41.876Z,16.30
2024-02-29T07:58:09.525Z,15.50
2024-02-29T08:00:36.194Z,15.93
2024-02-29T08:03:02.727Z,13.32
2024-02-29T08:05:29.397Z,17.63
2024-02-29T08:07:55.980Z,15.35
2024-02-29T08:10:22.730Z,17.05
2024-02-29T08:12:49.392Z,16.50
2024-02-29T08:15:16.150Z,15.18
2024-02-29T08:17:42.777Z,13.88
2024-02-29T08:20:09.705Z,13.88
2024-02-29T08:22:36.661Z,15.30
2024-02-29T08:25:03.754Z,15.13
2024-02-29T08:27:30.464Z,13.60
2024-02-29T08:29:57.082Z,14.13
2024-02-29T08:32:23.764Z,13.90
2024-02-29T08:34:50.412Z,12.30
2024-02-29T08:37:17.135Z,11.50
2024-02-29T08:39:43.826Z,15.18
2024-02-29T08:42:10.468Z,9.88
2024-02-29T08:44:37.056Z,14.40
2024-02-29T08:47:03.693Z,10.43
2024-02-29T08:49:30.334Z,10.57
2024-02-29T08:51:57.045Z,11.73
2024-02-29T08:54:23.652Z,11.73
2024-02-29T08:56:50.289Z,14.52
2024-02-29T08:59:18.759Z,13.45
2024-02-29T09:01:45.721Z,10.85
2024-02-29T09:04:12.484Z,10.43
2024-02-29T09:06:41.818Z,12.63
2024-02-29T09:11:35.602Z,10.55
2024-02-29T09:14:02.426Z,10.25
2024-02-29T09:16:29.180Z,10.68
2024-02-29T09:18:55.920Z,11.98
2024-02-29T09:21:22.528Z,12.98
2024-02-29T09:23:49.147Z,11.23
2024-02-29T09:26:15.808Z,11.43
2024-02-29T09:28:42.437Z,12.13
2024-02-29T09:31:09.111Z,12.18
2024-02-29T09:33:35.828Z,11.48
2024-02-29T09:36:08.691Z,16.75
2024-02-29T09:38:35.247Z,10.93
2024-02-29T09:41:07.478Z,11.85
2024-02-29T09:43:45.223Z,9.65
2024-02-29T09:46:12.038Z,10.95
2024-02-29T09:48:39.900Z,14.80
2024-02-29T09:51:06.629Z,10.13
2024-02-29T09:53:33.865Z,10.43
2024-02-29T09:56:00.428Z,8.77
2024-02-29T09:58:27.099Z,9.95
2024-02-29T10:00:53.808Z,6.68
2024-02-29T10:03:20.454Z,6.55
2024-02-29T10:05:47.139Z,6.82
2024-02-29T10:08:13.858Z,6.10
2024-02-29T10:10:40.716Z,7.28
2024-02-29T10:13:07.479Z,5.47
2024-02-29T10:15:34.202Z,9.15
2024-02-29T10:18:01.283Z,6.88
2024-02-29T10:20:28.258Z,5.68
2024-02-29T10:22:54.883Z,6.55
2024-02-29T10:25:22.540Z,5.72
2024-02-29T10:27:49.363Z,7.63
2024-02-29T10:30:20.100Z,6.32
2024-02-29T10:32:47.715Z,6.00
2024-02-29T10:35:23.618Z,6.03
2024-02-29T10:37:54.180Z,6.85
2024-02-29T10:40:21.011Z,9.43
2024-02-29T10:42:51.766Z,7.22
2024-02-29T10:45:18.727Z,6.65
2024-02-29T10:48:16.393Z,5.10
2024-02-29T10:51:23.222Z,4.20
2024-02-29T10:54:03.915Z,5.38
2024-02-29T10:56:30.776Z,4.93
2024-02-29T10:59:07.893Z,6.22
2024-02-29T11:01:38.632Z,3.90
2024-02-29T11:04:05.840Z,4.88
2024-02-29T11:06:52.710Z,5.63
2024-02-29T11:09:26.315Z,4.22
2024-02-29T11:12:13.873Z,5.05
2024-02-29T11:14:43.976Z,5.03
2024-02-29T11:17:10.574Z,4.20
2024-02-29T11:19:47.044Z,3.92
2024-02-29T11:22:18.480Z,3.42
2024-02-29T11:24:45.317Z,4.30
2024-02-29T11:27:12.773Z,6.18
2024-02-29T11:29:39.476Z,3.45
2024-02-29T11:32:08.030Z,3.05
2024-02-29T11:34:35.061Z,3.30
2024-02-29T11:37:01.836Z,4.15
2024-02-29T11:39:28.556Z,4.90
2024-02-29T11:42:05.078Z,3.88
2024-02-29T11:44:32.300Z,7.15
2024-02-29T11:46:59.427Z,3.67
2024-02-29T11:49:26.266Z,2.72
2024-02-29T11:51:53.542Z,3.88
2024-02-29T11:54:21.478Z,2.97
2024-02-29T11:56:49.975Z,3.10
2024-02-29T11:59:16.691Z,4.80
2024-02-29T12:01:43.774Z,3.00
2024-02-29T12:04:11.102Z,4.40
2024-02-29T12:06:38.446Z,3.72
2024-02-29T12:09:05.180Z,2.90
2024-02-29T12:11:31.879Z,1.73
2024-02-29T12:13:58.921Z,3.30
2024-02-29T12:16:25.603Z,2.88
2024-02-29T12:18:52.499Z,3.35
2024-02-29T12:21:19.102Z,3.55
2024-02-29T12:23:45.893Z,2.00
2024-02-29T12:26:15.585Z,2.08
2024-02-29T12:28:42.154Z,2.97
2024-02-29T12:31:09.546Z,2.55
2024-02-29T12:33:40.046Z,3.38
2024-02-29T12:36:11.917Z,3.20
2024-02-29T12:38:38.592Z,2.88
2024-02-29T12:41:06.193Z,2.30
2024-02-29T12:43:33.050Z,2.92
2024-02-29T12:45:59.771Z,2.28
2024-02-29T12:48:26.434Z,3.08
2024-02-29T12:50:53.061Z,3.17
2024-02-29T12:53:19.674Z,2.58
2024-02-29T12:55:46.366Z,3.85
2024-02-29T12:58:13.001Z,3.20
2024-02-29T13:00:39.745Z,4.85
2024-02-29T13:03:08.234Z,3.58
2024-02-29T13:05:35.638Z,2.95
2024-02-29T13:08:02.330Z,3.15
2024-02-29T13:10:29.037Z,1.92
2024-02-29T13:13:00.284Z,3.40
2024-02-29T13:15:32.909Z,2.20
2024-02-29T13:17:59.592Z,3.33
2024-02-29T13:20:26.202Z,2.65
2024-02-29T13:22:52.786Z,5.25
2024-02-29T13:25:19.666Z,2.80
2024-02-29T13:27:46.363Z,1.92
2024-02-29T13:30:13.116Z,5.05
2024-02-29T13:32:39.731Z,4.30
2024-02-29T13:35:06.811Z,2.35
2024-02-29T13:37:33.521Z,1.67
2024-02-29T13:40:00.237Z,3.30
2024-02-29T13:42:26.945Z,2.03
2024-02-29T13:44:53.566Z,1.67
2024-02-29T13:47:20.180Z,2.70
2024-02-29T13:49:46.857Z,2.95
2024-02-29T13:52:13.554Z,1.77
2024-02-29T13:54:40.253Z,3.00
2024-02-29T13:57:06.880Z,2.67
2024-02-29T13:59:33.518Z,1.70
2024-02-29T14:02:00.230Z,1.77
2024-02-29T14:04:26.940Z,1.90
2024-02-29T14:06:53.593Z,1.45
2024-02-29T14:09:23.938Z,1.77
2024-02-29T14:11:50.895Z,1.80
2024-02-29T14:14:17.545Z,3.10
2024-02-29T14:16:44.913Z,2.95
2024-02-29T14:19:11.667Z,4.22
2024-02-29T14:21:38.312Z,3.50
2024-02-29T14:24:05.101Z,3.67
2024-02-29T14:26:31.698Z,3.75
2024-02-29T14:28:58.264Z,5.85
2024-02-29T14:31:25.069Z,2.50
2024-02-29T14:33:51.994Z,3.58
2024-02-29T14:36:18.586Z,3.03
2024-02-29T14:38:45.287Z,2.25
2024-02-29T14:41:11.941Z,3.28
2024-02-29T14:43:38.530Z,2.63
2024-02-29T14:46:05.231Z,2.67
2024-02-29T14:48:31.896Z,2.70
2024-02-29T14:50:58.545Z,4.18
2024-02-29T14:53:25.161Z,3.90
2024-02-29T14:55:51.801Z,6.95
2024-02-29T14:58:18.483Z,5.97
2024-02-29T15:00:45.206Z,5.00
2024-02-29T15:03:11.845Z,7.25
2024-02-29T15:05:38.462Z,6.38
2024-02-29T15:08:05.392Z,8.00
2024-02-29T15:10:32.182Z,6.43
2024-02-29T15:12:58.991Z,6.35
2024-02-29T15:15:25.602Z,7.55
2024-02-29T15:17:52.231Z,6.20
2024-02-29T15:20:18.815Z,7.07
2024-02-29T15:22:46.260Z,7.20
2024-02-29T15:25:12.992Z,7.20
2024-02-29T15:27:39.773Z,6.90
2024-02-29T15:30:07.164Z,7.55
2024-02-29T15:32:33.870Z,7.05
2024-02-29T15:35:00.577Z,7.35
2024-02-29T15:37:27.279Z,9.02
2024-02-29T15:39:53.905Z,6.85
2024-02-29T15:42:20.494Z,8.88
2024-02-29T15:44:47.063Z,7.72
2024-02-29T15:47:13.707Z,6.18
2024-02-29T15:49:40.312Z,6.20
2024-02-29T15:52:07.028Z,7.60
2024-02-29T15:54:33.648Z,6.30
2024-02-29T15:57:00.312Z,7.38
2024-02-29T15:59:27.189Z,6.55
2024-02-29T16:01:53.821Z,6.70
2024-02-29T16:04:20.444Z,7.10
2024-02-29T16:06:47.106Z,5.95
2024-02-29T16:09:13.713Z,6.30
2024-02-29T16:11:40.362Z,7.80
2024-02-29T16:14:06.971Z,6.85
2024-02-29T16:16:33.643Z,6.90
2024-02-29T16:19:00.355Z,6.88
2024-02-29T16:21:26.939Z,5.28
2024-02-29T16:23:53.561Z,5.55
2024-02-29T16:26:20.185Z,6.30
2024-02-29T16:28:46.884Z,5.85
2024-02-29T16:31:13.498Z,7.70
2024-02-29T16:33:40.172Z,5.93
2024-02-29T16:36:07.455Z,5.63
2024-02-29T16:38:34.105Z,3.95
2024-02-29T16:41:00.723Z,5.90
2024-02-29T16:43:27.426Z,4.93
2024-02-29T16:45:54.092Z,5.35
2024-02-29T16:48:20.777Z,4.70
2024-02-29T16:50:47.424Z,5.70
2024-02-29T16:53:14.084Z,5.80
2024-02-29T16:55:40.680Z,6.30
2024-02-29T16:58:07.492Z,5.18
2024-02-29T17:00:34.153Z,6.13
2024-02-29T17:03:00.739Z,5.90
2024-02-29T17:05:27.409Z,5.70
2024-02-29T17:07:54.070Z,3.45
2024-02-29T17:10:20.708Z,3.75
2024-02-29T17:12:47.392Z,4.07
2024-02-29T17:15:14.106Z,4.53
2024-02-29T17:17:40.672Z,4.70
2024-02-29T17:20:07.653Z,3.88
2024-02-29T17:22:34.184Z,3.83
2024-02-29T17:25:00.990Z,5.38
2024-02-29T17:27:27.599Z,4.70
2024-02-29T17:29:54.173Z,4.90
2024-02-29T17:32:20.778Z,4.43
2024-02-29T17:34:47.303Z,5.25
2024-02-29T17:37:14.008Z,6.55
2024-02-29T17:39:40.658Z,6.28
2024-02-29T17:42:07.251Z,6.47
2024-02-29T17:44:33.878Z,9.10
2024-02-29T17:47:00.603Z,8.05
2024-02-29T17:49:27.310Z,5.85
2024-02-29T17:51:54.042Z,7.15
2024-02-29T17:54:20.644Z,7.05
2024-02-29T17:56:47.376Z,5.72
2024-02-29T17:59:14.094Z,5.68
2024-02-29T18:01:40.818Z,8.20
2024-02-29T18:04:07.559Z,6.47
2024-02-29T18:06:34.186Z,7.03
2024-02-29T18:09:00.812Z,6.03
2024-02-29T18:11:27.436Z,5.30
2024-02-29T18:13:54.023Z,7.10
2024-02-29T18:16:20.702Z,7.93
2024-02-29T18:18:47.295Z,7.00
2024-02-29T18:21:13.925Z,6.30
2024-02-29T18:23:40.620Z,7.05
2024-02-29T18:26:07.178Z,8.48
2024-02-29T18:28:33.781Z,7.82
2024-02-29T18:31:00.431Z,7.63
2024-02-29T18:33:27.109Z,7.55
2024-02-29T18:35:53.643Z,9.57
2024-02-29T18:38:20.268Z,7.82
2024-02-29T18:40:47.085Z,7.57
2024-02-29T18:43:13.724Z,7.25
2024-02-29T18:45:40.332Z,6.78
2024-02-29T18:48:07.894Z,5.88
2024-02-29T18:50:34.502Z,6.05
2024-02-29T18:53:01.125Z,8.40
2024-02-29T18:55:27.787Z,7.05
2024-02-29T18:57:54.473Z,7.38
2024-02-29T19:00:21.095Z,8.02
2024-02-29T19:02:47.690Z,7.03
2024-02-29T19:05:14.563Z,8.55
2024-02-29T19:07:41.208Z,8.98
2024-02-29T19:10:08.237Z,9.18
2024-02-29T19:12:35.007Z,9.10
2024-02-29T19:15:01.593Z,8.73
2024-02-29T19:17:28.272Z,10.25
2024-02-29T19:19:55.163Z,9.65
2024-02-29T19:22:21.803Z,11.43
2024-02-29T19:24:48.490Z,9.57
2024-02-29T19:27:15.248Z,9.15
2024-02-29T19:29:41.854Z,10.68
2024-02-29T19:32:08.492Z,13.75
2024-02-29T19:34:35.215Z,11.05
2024-02-29T19:37:01.908Z,11.38
2024-02-29T19:39:28.527Z,9.93
2024-02-29T19:41:55.138Z,11.52
2024-02-29T19:44:21.813Z,11.73
2024-02-29T19:46:48.767Z,12.98
2024-02-29T19:49:15.555Z,13.30
2024-02-29T19:51:42.433Z,13.00
2024-02-29T19:54:09.077Z,10.82
2024-02-29T19:56:35.647Z,15.73
2024-02-29T19:59:02.409Z,13.55
2024-02-29T20:01:29.221Z,12.15
2024-02-29T20:03:55.952Z,13.98
2024-02-29T20:06:22.715Z,13.27
2024-02-29T20:08:49.411Z,11.93
2024-02-29T20:11:16.226Z,13.88
2024-02-29T20:13:42.800Z,16.77
2024-02-29T20:16:09.511Z,15.38
2024-02-29T20:18:36.178Z,14.02
2024-02-29T20:21:03.075Z,14.68
2024-02-29T20:23:29.875Z,12.05
2024-02-29T20:25:56.572Z,11.73
2024-02-29T20:28:23.361Z,15.50
2024-02-29T20:30:50.203Z,13.13
2024-02-29T20:33:16.916Z,14.13
2024-02-29T20:35:43.494Z,15.45
2024-02-29T20:38:10.104Z,13.80
2024-02-29T20:40:36.782Z,15.02
2024-02-29T20:43:03.550Z,15.48
2024-02-29T20:45:31.016Z,13.48
2024-02-29T20:47:57.642Z,13.00
2024-02-29T20:50:24.252Z,15.32
2024-02-29T20:52:50.774Z,15.52
2024-02-29T20:55:17.422Z,15.60
2024-02-29T20:57:43.989Z,15.15
2024-02-29T21:00:11.236Z,14.98
2024-02-29T21:02:37.800Z,12.23
2024-02-29T21:05:04.601Z,14.02
2024-02-29T21:07:33.296Z,14.00
2024-02-29T21:10:00.015Z,14.98
2024-02-29T21:12:26.699Z,15.00
2024-02-29T21:14:53.289Z,15.98
2024-02-29T21:17:20.145Z,15.70
2024-02-29T21:19:46.730Z,14.55
2024-02-29T21:22:13.405Z,17.38
2024-02-29T21:24:40.498Z,14.27
2024-02-29T21:27:08.054Z,15.38
2024-02-29T21:29:34.717Z,13.10
2024-02-29T21:32:01.273Z,14.82
2024-02-29T21:34:27.956Z,14.30
2024-02-29T21:36:54.708Z,19.73
2024-02-29T21:39:28.436Z,15.55
2024-02-29T21:44:31.357Z,13.50
2024-02-29T21:46:57.864Z,14.13
2024-02-29T21:49:24.574Z,14.80
2024-02-29T21:51:51.807Z,16.52
2024-02-29T21:54:18.363Z,14.75
2024-02-29T21:56:44.937Z,16.33
2024-02-29T21:59:11.538Z,16.30
2024-02-29T22:01:38.192Z,15.80
2024-02-29T22:04:05.268Z,17.08
2024-02-29T22:06:31.905Z,15.00
2024-02-29T22:08:58.464Z,15.55
2024-02-29T22:11:25.064Z,18.45
2024-02-29T22:13:51.636Z,14.98
2024-02-29T22:16:19.452Z,14.50
2024-02-29T22:18:46.075Z,16.08
2024-02-29T22:21:12.682Z,14.70
2024-02-29T22:23:39.339Z,17.05
2024-02-29T22:26:06.000Z,18.00
2024-02-29T22:28:32.678Z,16.27
2024-02-29T22:30:59.433Z,14.00
2024-02-29T22:33:26.014Z,17.13
2024-02-29T22:35:52.634Z,15.43
2024-02-29T22:38:19.142Z,15.25
2024-02-29T22:40:45.740Z,15.23
2024-02-29T22:43:12.698Z,15.88
2024-02-29T22:45:39.508Z,15.77
2024-02-29T22:48:06.429Z,18.02
2024-02-29T22:50:33.063Z,18.58
2024-02-29T22:52:59.693Z,16.85
2024-02-29T22:55:26.339Z,16.45
2024-02-29T22:57:53.139Z,16.02
2024-02-29T23:00:19.932Z,15.88
2024-02-29T23:02:46.550Z,15.57
2024-02-29T23:05:13.238Z,18.60
2024-02-29T23:07:39.816Z,13.68
2024-02-29T23:10:06.831Z,16.27
2024-02-29T23:12:33.485Z,17.10
2024-02-29T23:15:00.175Z,18.15
2024-02-29T23:17:26.796Z,16.08
2024-02-29T23:19:56.078Z,17.73
2024-02-29T23:22:22.890Z,19.13
2024-02-29T23:24:49.504Z,17.88
2024-02-29T23:27:16.081Z,16.35
2024-02-29T23:29:42.663Z,18.88
2024-02-29T23:32:09.390Z,16.27
2024-02-29T23:34:36.036Z,16.90
2024-02-29T23:37:02.700Z,17.73
2024-02-29T23:39:29.281Z,15.50
2024-02-29T23:41:56.570Z,17.52
2024-02-29T23:44:23.183Z,17.90
2024-02-29T23:46:49.795Z,17.85
2024-02-29T23:49:17.069Z,17.85
2024-02-29T23:51:43.711Z,21.25
2024-02-29T23:54:10.296Z,16.77
2024-02-29T23:56:36.883Z,16.85
2024-02-29T23:59:03.493Z,16.00
